sensor_id;sensor_type;location;lat;lon;timestamp;P1;durP1;ratioP1;P2;durP2;ratioP2
29902;SDS011;30288;50.514;9.678;2023-05-18T00:01:33;12.85;;;5.65;;
29902;SDS011;30288;50.514;9.678;2023-05-18T00:03:41;12.05;;;5.63;;
29902;SDS011;30288;50.514;9.678;2023-05-18T00:05:48;12.63;;;5.25;;
29902;SDS011;30288;50.514;9.678;2023-05-18T00:07:55;13.98;;;6.10;;
29902;SDS011;30288;50.514;9.678;2023-05-18T00:10:01;12.68;;;5.63;;
29902;SDS011;30288;50.514;9.678;2023-05-18T00:12:07;11.10;;;5.22;;
29902;SDS011;30288;50.514;9.678;2023-05-18T00:14:13;14.02;;;5.82;;
29902;SDS011;30288;50.514;9.678;2023-05-18T00:16:18;11.93;;;5.20;;
29902;SDS011;30288;50.514;9.678;2023-05-18T00:18:23;13.80;;;6.15;;
29902;SDS011;30288;50.514;9.678;2023-05-18T00:20:29;13.70;;;4.95;;
29902;SDS011;30288;50.514;9.678;2023-05-18T00:22:35;15.50;;;6.00;;
29902;SDS011;30288;50.514;9.678;2023-05-18T00:24:46;16.50;;;5.43;;
29902;SDS011;30288;50.514;9.678;2023-05-18T00:26:52;13.43;;;5.55;;
29902;SDS011;30288;50.514;9.678;2023-05-18T00:28:58;20.17;;;6.38;;
29902;SDS011;30288;50.514;9.678;2023-05-18T00:31:03;12.95;;;5.85;;
29902;SDS011;30288;50.514;9.678;2023-05-18T00:33:09;13.05;;;6.10;;
29902;SDS011;30288;50.514;9.678;2023-05-18T00:35:14;18.58;;;6.75;;
29902;SDS011;30288;50.514;9.678;2023-05-18T00:37:19;12.60;;;5.68;;
29902;SDS011;30288;50.514;9.678;2023-05-18T00:39:25;18.52;;;4.68;;
29902;SDS011;30288;50.514;9.678;2023-05-18T00:41:33;12.52;;;5.15;;
29902;SDS011;30288;50.514;9.678;2023-05-18T00:43:39;15.43;;;5.53;;
29902;SDS011;30288;50.514;9.678;2023-05-18T00:45:44;11.63;;;4.63;;
29902;SDS011;30288;50.514;9.678;2023-05-18T00:47:50;12.63;;;5.55;;
29902;SDS011;30288;50.514;9.678;2023-05-18T00:49:55;13.32;;;5.10;;
29902;SDS011;30288;50.514;9.678;2023-05-18T00:52:01;13.57;;;5.13;;
29902;SDS011;30288;50.514;9.678;2023-05-18T00:54:08;20.55;;;5.57;;
29902;SDS011;30288;50.514;9.678;2023-05-18T00:56:13;13.65;;;6.13;;
29902;SDS011;30288;50.514;9.678;2023-05-18T00:58:21;25.25;;;6.10;;
29902;SDS011;30288;50.514;9.678;2023-05-18T01:00:27;18.15;;;5.75;;
29902;SDS011;30288;50.514;9.678;2023-05-18T01:02:32;12.63;;;5.47;;
29902;SDS011;30288;50.514;9.678;2023-05-18T01:04:43;13.32;;;5.28;;
29902;SDS011;30288;50.514;9.678;2023-05-18T01:06:48;11.88;;;4.97;;
29902;SDS011;30288;50.514;9.678;2023-05-18T01:08:57;16.08;;;5.38;;
29902;SDS011;30288;50.514;9.678;2023-05-18T01:11:06;15.60;;;5.10;;
29902;SDS011;30288;50.514;9.678;2023-05-18T01:13:26;11.32;;;5.00;;
29902;SDS011;30288;50.514;9.678;2023-05-18T01:15:39;15.93;;;5.93;;
29902;SDS011;30288;50.514;9.678;2023-05-18T01:17:50;14.77;;;5.57;;
29902;SDS011;30288;50.514;9.678;2023-05-18T01:20:13;13.15;;;5.45;;
29902;SDS011;30288;50.514;9.678;2023-05-18T01:22:34;17.33;;;5.82;;
29902;SDS011;30288;50.514;9.678;2023-05-18T01:24:53;15.00;;;5.28;;
29902;SDS011;30288;50.514;9.678;2023-05-18T01:27:09;13.98;;;6.38;;
29902;SDS011;30288;50.514;9.678;2023-05-18T01:29:20;15.98;;;5.30;;
29902;SDS011;30288;50.514;9.678;2023-05-18T01:31:26;13.57;;;5.93;;
29902;SDS011;30288;50.514;9.678;2023-05-18T01:33:31;17.45;;;5.97;;
29902;SDS011;30288;50.514;9.678;2023-05-18T01:35:37;14.13;;;6.28;;
29902;SDS011;30288;50.514;9.678;2023-05-18T01:37:49;13.35;;;5.50;;
29902;SDS011;30288;50.514;9.678;2023-05-18T01:39:54;12.13;;;5.28;;
29902;SDS011;30288;50.514;9.678;2023-05-18T01:42:01;11.48;;;5.20;;
29902;SDS011;30288;50.514;9.678;2023-05-18T01:44:17;11.13;;;5.10;;
29902;SDS011;30288;50.514;9.678;2023-05-18T01:46:31;11.60;;;5.13;;
29902;SDS011;30288;50.514;9.678;2023-05-18T01:48:43;13.55;;;5.38;;
29902;SDS011;30288;50.514;9.678;2023-05-18T01:50:57;16.15;;;5.13;;
29902;SDS011;30288;50.514;9.678;2023-05-18T01:53:05;16.10;;;6.10;;
29902;SDS011;30288;50.514;9.678;2023-05-18T01:55:17;12.40;;;4.80;;
29902;SDS011;30288;50.514;9.678;2023-05-18T01:57:24;10.27;;;5.40;;
29902;SDS011;30288;50.514;9.678;2023-05-18T01:59:35;12.63;;;4.22;;
29902;SDS011;30288;50.514;9.678;2023-05-18T02:01:42;13.48;;;4.65;;
29902;SDS011;30288;50.514;9.678;2023-05-18T02:03:49;13.48;;;5.40;;
29902;SDS011;30288;50.514;9.678;2023-05-18T02:05:55;10.57;;;4.70;;
29902;SDS011;30288;50.514;9.678;2023-05-18T02:08:00;12.02;;;4.68;;
29902;SDS011;30288;50.514;9.678;2023-05-18T02:10:07;11.70;;;4.85;;
29902;SDS011;30288;50.514;9.678;2023-05-18T02:12:14;14.18;;;5.95;;
29902;SDS011;30288;50.514;9.678;2023-05-18T02:14:20;10.95;;;5.22;;
29902;SDS011;30288;50.514;9.678;2023-05-18T02:16:28;16.40;;;6.50;;
29902;SDS011;30288;50.514;9.678;2023-05-18T02:18:34;10.48;;;5.03;;
29902;SDS011;30288;50.514;9.678;2023-05-18T02:20:39;11.05;;;4.95;;
29902;SDS011;30288;50.514;9.678;2023-05-18T02:22:45;15.25;;;6.05;;
29902;SDS011;30288;50.514;9.678;2023-05-18T02:24:50;14.10;;;6.15;;
29902;SDS011;30288;50.514;9.678;2023-05-18T02:26:56;14.15;;;5.60;;
29902;SDS011;30288;50.514;9.678;2023-05-18T02:29:02;15.27;;;5.38;;
29902;SDS011;30288;50.514;9.678;2023-05-18T02:31:10;12.90;;;6.20;;
29902;SDS011;30288;50.514;9.678;2023-05-18T02:33:18;16.55;;;6.25;;
29902;SDS011;30288;50.514;9.678;2023-05-18T02:35:27;17.27;;;6.40;;
29902;SDS011;30288;50.514;9.678;2023-05-18T02:37:33;15.13;;;5.85;;
29902;SDS011;30288;50.514;9.678;2023-05-18T02:39:41;14.07;;;6.38;;
29902;SDS011;30288;50.514;9.678;2023-05-18T02:41:47;13.85;;;5.88;;
29902;SDS011;30288;50.514;9.678;2023-05-18T02:43:53;19.05;;;6.80;;
29902;SDS011;30288;50.514;9.678;2023-05-18T02:45:59;16.67;;;7.03;;
29902;SDS011;30288;50.514;9.678;2023-05-18T02:48:07;12.27;;;6.22;;
29902;SDS011;30288;50.514;9.678;2023-05-18T02:50:15;16.25;;;6.25;;
29902;SDS011;30288;50.514;9.678;2023-05-18T02:52:21;18.30;;;6.70;;
29902;SDS011;30288;50.514;9.678;2023-05-18T02:54:29;17.98;;;6.45;;
29902;SDS011;30288;50.514;9.678;2023-05-18T02:56:35;12.32;;;6.18;;
29902;SDS011;30288;50.514;9.678;2023-05-18T02:58:54;14.40;;;5.75;;
29902;SDS011;30288;50.514;9.678;2023-05-18T03:01:14;16.13;;;5.88;;
29902;SDS011;30288;50.514;9.678;2023-05-18T03:03:23;18.95;;;6.50;;
29902;SDS011;30288;50.514;9.678;2023-05-18T03:05:31;17.67;;;7.00;;
29902;SDS011;30288;50.514;9.678;2023-05-18T03:07:37;14.32;;;6.90;;
29902;SDS011;30288;50.514;9.678;2023-05-18T03:09:43;18.80;;;7.40;;
29902;SDS011;30288;50.514;9.678;2023-05-18T03:11:48;15.85;;;7.40;;
29902;SDS011;30288;50.514;9.678;2023-05-18T03:13:54;15.13;;;7.38;;
29902;SDS011;30288;50.514;9.678;2023-05-18T03:15:59;16.90;;;7.20;;
29902;SDS011;30288;50.514;9.678;2023-05-18T03:18:04;24.23;;;7.22;;
29902;SDS011;30288;50.514;9.678;2023-05-18T03:20:10;18.45;;;8.20;;
29902;SDS011;30288;50.514;9.678;2023-05-18T03:22:18;15.18;;;7.32;;
29902;SDS011;30288;50.514;9.678;2023-05-18T03:24:24;18.55;;;7.22;;
29902;SDS011;30288;50.514;9.678;2023-05-18T03:26:33;21.40;;;8.48;;
29902;SDS011;30288;50.514;9.678;2023-05-18T03:28:40;18.42;;;8.00;;
29902;SDS011;30288;50.514;9.678;2023-05-18T03:30:45;17.83;;;7.07;;
29902;SDS011;30288;50.514;9.678;2023-05-18T03:32:50;21.40;;;7.88;;
29902;SDS011;30288;50.514;9.678;2023-05-18T03:34:57;16.25;;;7.05;;
29902;SDS011;30288;50.514;9.678;2023-05-18T03:37:05;18.83;;;6.63;;
29902;SDS011;30288;50.514;9.678;2023-05-18T03:39:14;15.40;;;6.95;;
29902;SDS011;30288;50.514;9.678;2023-05-18T03:41:19;25.88;;;7.22;;
29902;SDS011;30288;50.514;9.678;2023-05-18T03:43:27;14.73;;;6.72;;
29902;SDS011;30288;50.514;9.678;2023-05-18T03:45:34;16.80;;;7.20;;
29902;SDS011;30288;50.514;9.678;2023-05-18T03:47:40;17.48;;;7.32;;
29902;SDS011;30288;50.514;9.678;2023-05-18T03:49:46;14.85;;;6.35;;
29902;SDS011;30288;50.514;9.678;2023-05-18T03:51:52;16.88;;;7.40;;
29902;SDS011;30288;50.514;9.678;2023-05-18T03:53:58;15.90;;;6.57;;
29902;SDS011;30288;50.514;9.678;2023-05-18T03:56:06;19.83;;;7.80;;
29902;SDS011;30288;50.514;9.678;2023-05-18T03:58:14;14.02;;;6.88;;
29902;SDS011;30288;50.514;9.678;2023-05-18T04:00:20;17.48;;;6.68;;
29902;SDS011;30288;50.514;9.678;2023-05-18T04:02:26;14.38;;;7.03;;
29902;SDS011;30288;50.514;9.678;2023-05-18T04:04:31;17.20;;;7.38;;
29902;SDS011;30288;50.514;9.678;2023-05-18T04:06:37;14.57;;;7.25;;
29902;SDS011;30288;50.514;9.678;2023-05-18T04:08:43;16.40;;;6.85;;
29902;SDS011;30288;50.514;9.678;2023-05-18T04:10:48;16.13;;;7.13;;
29902;SDS011;30288;50.514;9.678;2023-05-18T04:12:57;13.60;;;7.50;;
29902;SDS011;30288;50.514;9.678;2023-05-18T04:15:03;18.00;;;7.28;;
29902;SDS011;30288;50.514;9.678;2023-05-18T04:17:09;12.60;;;6.53;;
29902;SDS011;30288;50.514;9.678;2023-05-18T04:19:15;16.75;;;7.07;;
29902;SDS011;30288;50.514;9.678;2023-05-18T04:21:22;11.18;;;6.90;;
29902;SDS011;30288;50.514;9.678;2023-05-18T04:23:28;15.18;;;6.78;;
29902;SDS011;30288;50.514;9.678;2023-05-18T04:25:34;19.27;;;6.90;;
29902;SDS011;30288;50.514;9.678;2023-05-18T04:27:40;18.48;;;7.90;;
29902;SDS011;30288;50.514;9.678;2023-05-18T04:29:53;13.32;;;6.70;;
29902;SDS011;30288;50.514;9.678;2023-05-18T04:31:58;14.98;;;6.90;;
29902;SDS011;30288;50.514;9.678;2023-05-18T04:34:03;16.48;;;6.93;;
29902;SDS011;30288;50.514;9.678;2023-05-18T04:36:09;18.90;;;7.80;;
29902;SDS011;30288;50.514;9.678;2023-05-18T04:38:15;15.80;;;7.20;;
29902;SDS011;30288;50.514;9.678;2023-05-18T04:40:23;20.08;;;8.02;;
29902;SDS011;30288;50.514;9.678;2023-05-18T04:42:28;21.55;;;8.02;;
29902;SDS011;30288;50.514;9.678;2023-05-18T04:44:35;23.63;;;9.18;;
29902;SDS011;30288;50.514;9.678;2023-05-18T04:46:43;17.00;;;6.90;;
29902;SDS011;30288;50.514;9.678;2023-05-18T04:48:48;17.45;;;7.57;;
29902;SDS011;30288;50.514;9.678;2023-05-18T04:53:36;15.43;;;7.15;;
29902;SDS011;30288;50.514;9.678;2023-05-18T04:55:41;18.95;;;7.72;;
29902;SDS011;30288;50.514;9.678;2023-05-18T04:57:48;14.68;;;7.70;;
29902;SDS011;30288;50.514;9.678;2023-05-18T04:59:54;14.98;;;7.57;;
29902;SDS011;30288;50.514;9.678;2023-05-18T05:02:02;18.48;;;8.60;;
29902;SDS011;30288;50.514;9.678;2023-05-18T05:04:08;16.80;;;7.60;;
29902;SDS011;30288;50.514;9.678;2023-05-18T05:06:15;19.38;;;8.50;;
29902;SDS011;30288;50.514;9.678;2023-05-18T05:08:20;18.17;;;8.07;;
29902;SDS011;30288;50.514;9.678;2023-05-18T05:10:25;15.73;;;7.82;;
29902;SDS011;30288;50.514;9.678;2023-05-18T05:12:31;17.75;;;7.63;;
29902;SDS011;30288;50.514;9.678;2023-05-18T05:14:36;17.33;;;8.10;;
29902;SDS011;30288;50.514;9.678;2023-05-18T05:16:42;20.80;;;7.85;;
29902;SDS011;30288;50.514;9.678;2023-05-18T05:18:50;15.73;;;7.78;;
29902;SDS011;30288;50.514;9.678;2023-05-18T05:20:55;20.55;;;7.65;;
29902;SDS011;30288;50.514;9.678;2023-05-18T05:23:01;15.75;;;7.70;;
29902;SDS011;30288;50.514;9.678;2023-05-18T05:25:06;18.98;;;7.57;;
29902;SDS011;30288;50.514;9.678;2023-05-18T05:27:13;16.98;;;6.95;;
29902;SDS011;30288;50.514;9.678;2023-05-18T05:29:19;21.52;;;7.80;;
29902;SDS011;30288;50.514;9.678;2023-05-18T05:31:27;19.52;;;7.50;;
29902;SDS011;30288;50.514;9.678;2023-05-18T05:33:32;20.48;;;9.05;;
29902;SDS011;30288;50.514;9.678;2023-05-18T05:35:40;17.17;;;6.93;;
29902;SDS011;30288;50.514;9.678;2023-05-18T05:37:46;17.45;;;7.30;;
29902;SDS011;30288;50.514;9.678;2023-05-18T05:39:51;15.02;;;7.55;;
29902;SDS011;30288;50.514;9.678;2023-05-18T05:41:57;16.85;;;7.95;;
29902;SDS011;30288;50.514;9.678;2023-05-18T05:44:02;14.98;;;7.00;;
29902;SDS011;30288;50.514;9.678;2023-05-18T05:46:08;14.20;;;6.95;;
29902;SDS011;30288;50.514;9.678;2023-05-18T05:48:13;14.43;;;6.55;;
29902;SDS011;30288;50.514;9.678;2023-05-18T05:50:19;21.83;;;7.20;;
29902;SDS011;30288;50.514;9.678;2023-05-18T05:52:29;22.20;;;6.88;;
29902;SDS011;30288;50.514;9.678;2023-05-18T05:54:35;16.52;;;7.13;;
29902;SDS011;30288;50.514;9.678;2023-05-18T05:56:41;18.35;;;7.13;;
29902;SDS011;30288;50.514;9.678;2023-05-18T05:58:48;15.73;;;6.35;;
29902;SDS011;30288;50.514;9.678;2023-05-18T06:00:54;13.68;;;6.28;;
29902;SDS011;30288;50.514;9.678;2023-05-18T06:02:59;14.32;;;6.20;;
29902;SDS011;30288;50.514;9.678;2023-05-18T06:05:08;16.13;;;6.68;;
29902;SDS011;30288;50.514;9.678;2023-05-18T06:07:13;14.60;;;6.68;;
29902;SDS011;30288;50.514;9.678;2023-05-18T06:09:21;17.13;;;6.63;;
29902;SDS011;30288;50.514;9.678;2023-05-18T06:11:28;16.25;;;6.55;;
29902;SDS011;30288;50.514;9.678;2023-05-18T06:13:33;16.45;;;6.72;;
29902;SDS011;30288;50.514;9.678;2023-05-18T06:15:38;16.92;;;6.43;;
29902;SDS011;30288;50.514;9.678;2023-05-18T06:17:44;12.70;;;5.70;;
29902;SDS011;30288;50.514;9.678;2023-05-18T06:19:50;16.17;;;5.78;;
29902;SDS011;30288;50.514;9.678;2023-05-18T06:21:55;21.83;;;6.53;;
29902;SDS011;30288;50.514;9.678;2023-05-18T06:24:03;12.80;;;5.20;;
29902;SDS011;30288;50.514;9.678;2023-05-18T06:26:31;16.33;;;5.50;;
29902;SDS011;30288;50.514;9.678;2023-05-18T06:28:55;14.80;;;5.53;;
29902;SDS011;30288;50.514;9.678;2023-05-18T06:31:08;13.43;;;6.07;;
29902;SDS011;30288;50.514;9.678;2023-05-18T06:33:24;14.10;;;5.53;;
29902;SDS011;30288;50.514;9.678;2023-05-18T06:35:31;13.07;;;5.55;;
29902;SDS011;30288;50.514;9.678;2023-05-18T06:37:36;20.50;;;5.35;;
29902;SDS011;30288;50.514;9.678;2023-05-18T06:39:42;14.88;;;5.32;;
29902;SDS011;30288;50.514;9.678;2023-05-18T06:41:50;14.27;;;4.90;;
29902;SDS011;30288;50.514;9.678;2023-05-18T06:43:59;17.05;;;5.38;;
29902;SDS011;30288;50.514;9.678;2023-05-18T06:46:27;17.05;;;5.15;;
29902;SDS011;30288;50.514;9.678;2023-05-18T06:48:39;16.08;;;5.28;;
29902;SDS011;30288;50.514;9.678;2023-05-18T06:50:46;10.57;;;4.70;;
29902;SDS011;30288;50.514;9.678;2023-05-18T06:52:51;11.63;;;4.80;;
29902;SDS011;30288;50.514;9.678;2023-05-18T06:54:56;12.38;;;4.68;;
29902;SDS011;30288;50.514;9.678;2023-05-18T06:57:05;18.20;;;5.00;;
29902;SDS011;30288;50.514;9.678;2023-05-18T06:59:11;12.77;;;5.43;;
29902;SDS011;30288;50.514;9.678;2023-05-18T07:01:17;13.63;;;4.45;;
29902;SDS011;30288;50.514;9.678;2023-05-18T07:03:22;14.48;;;4.78;;
29902;SDS011;30288;50.514;9.678;2023-05-18T07:05:27;11.52;;;4.25;;
29902;SDS011;30288;50.514;9.678;2023-05-18T07:07:33;18.88;;;4.65;;
29902;SDS011;30288;50.514;9.678;2023-05-18T07:09:39;12.20;;;4.68;;
29902;SDS011;30288;50.514;9.678;2023-05-18T07:11:46;14.65;;;4.32;;
29902;SDS011;30288;50.514;9.678;2023-05-18T07:13:54;16.05;;;4.25;;
29902;SDS011;30288;50.514;9.678;2023-05-18T07:15:59;11.57;;;4.20;;
29902;SDS011;30288;50.514;9.678;2023-05-18T07:18:05;12.05;;;4.50;;
29902;SDS011;30288;50.514;9.678;2023-05-18T07:20:10;12.20;;;3.63;;
29902;SDS011;30288;50.514;9.678;2023-05-18T07:22:16;12.95;;;4.50;;
29902;SDS011;30288;50.514;9.678;2023-05-18T07:24:21;13.68;;;4.10;;
29902;SDS011;30288;50.514;9.678;2023-05-18T07:26:26;8.73;;;3.78;;
29902;SDS011;30288;50.514;9.678;2023-05-18T07:28:32;16.15;;;4.32;;
29902;SDS011;30288;50.514;9.678;2023-05-18T07:30:40;9.80;;;3.90;;
29902;SDS011;30288;50.514;9.678;2023-05-18T07:32:45;11.20;;;2.90;;
29902;SDS011;30288;50.514;9.678;2023-05-18T07:34:52;9.88;;;3.03;;
29902;SDS011;30288;50.514;9.678;2023-05-18T07:36:58;9.50;;;3.35;;
29902;SDS011;30288;50.514;9.678;2023-05-18T07:39:03;12.63;;;3.35;;
29902;SDS011;30288;50.514;9.678;2023-05-18T07:41:09;13.68;;;4.53;;
29902;SDS011;30288;50.514;9.678;2023-05-18T07:43:15;10.00;;;3.00;;
29902;SDS011;30288;50.514;9.678;2023-05-18T07:45:20;19.58;;;3.72;;
29902;SDS011;30288;50.514;9.678;2023-05-18T07:47:28;10.45;;;3.00;;
29902;SDS011;30288;50.514;9.678;2023-05-18T07:49:34;16.23;;;2.92;;
29902;SDS011;30288;50.514;9.678;2023-05-18T07:51:39;11.10;;;3.08;;
29902;SDS011;30288;50.514;9.678;2023-05-18T07:53:45;11.43;;;2.55;;
29902;SDS011;30288;50.514;9.678;2023-05-18T07:55:50;11.18;;;3.05;;
29902;SDS011;30288;50.514;9.678;2023-05-18T07:57:55;10.98;;;2.70;;
29902;SDS011;30288;50.514;9.678;2023-05-18T08:00:02;7.43;;;2.45;;
29902;SDS011;30288;50.514;9.678;2023-05-18T08:02:13;10.43;;;2.35;;
29902;SDS011;30288;50.514;9.678;2023-05-18T08:04:23;8.27;;;2.60;;
29902;SDS011;30288;50.514;9.678;2023-05-18T08:06:28;8.25;;;2.72;;
29902;SDS011;30288;50.514;9.678;2023-05-18T08:08:34;8.57;;;2.80;;
29902;SDS011;30288;50.514;9.678;2023-05-18T08:10:39;13.38;;;3.17;;
29902;SDS011;30288;50.514;9.678;2023-05-18T08:12:44;9.93;;;2.90;;
29902;SDS011;30288;50.514;9.678;2023-05-18T08:14:49;11.50;;;2.70;;
29902;SDS011;30288;50.514;9.678;2023-05-18T08:16:57;12.07;;;2.97;;
29902;SDS011;30288;50.514;9.678;2023-05-18T08:19:02;9.38;;;2.53;;
29902;SDS011;30288;50.514;9.678;2023-05-18T08:21:10;9.70;;;2.45;;
29902;SDS011;30288;50.514;9.678;2023-05-18T08:23:16;15.48;;;3.00;;
29902;SDS011;30288;50.514;9.678;2023-05-18T08:25:21;9.10;;;2.10;;
29902;SDS011;30288;50.514;9.678;2023-05-18T08:27:26;14.13;;;2.63;;
29902;SDS011;30288;50.514;9.678;2023-05-18T08:29:32;10.45;;;2.70;;
29902;SDS011;30288;50.514;9.678;2023-05-18T08:31:38;13.25;;;2.47;;
29902;SDS011;30288;50.514;9.678;2023-05-18T08:33:46;11.10;;;2.55;;
29902;SDS011;30288;50.514;9.678;2023-05-18T08:35:51;8.35;;;2.20;;
29902;SDS011;30288;50.514;9.678;2023-05-18T08:37:59;12.60;;;2.78;;
29902;SDS011;30288;50.514;9.678;2023-05-18T08:40:07;10.20;;;2.45;;
29902;SDS011;30288;50.514;9.678;2023-05-18T08:42:15;9.70;;;3.08;;
29902;SDS011;30288;50.514;9.678;2023-05-18T08:44:37;11.52;;;2.53;;
29902;SDS011;30288;50.514;9.678;2023-05-18T08:46:49;9.10;;;2.95;;
29902;SDS011;30288;50.514;9.678;2023-05-18T08:48:55;14.75;;;2.70;;
29902;SDS011;30288;50.514;9.678;2023-05-18T08:51:04;12.50;;;2.95;;
29902;SDS011;30288;50.514;9.678;2023-05-18T08:53:14;11.38;;;2.10;;
29902;SDS011;30288;50.514;9.678;2023-05-18T08:55:22;11.00;;;2.47;;
29902;SDS011;30288;50.514;9.678;2023-05-18T08:57:29;12.35;;;2.20;;
29902;SDS011;30288;50.514;9.678;2023-05-18T08:59:38;12.02;;;2.63;;
29902;SDS011;30288;50.514;9.678;2023-05-18T09:01:45;9.27;;;2.20;;
29902;SDS011;30288;50.514;9.678;2023-05-18T09:03:50;13.30;;;2.75;;
29902;SDS011;30288;50.514;9.678;2023-05-18T09:05:56;11.25;;;2.20;;
29902;SDS011;30288;50.514;9.678;2023-05-18T09:08:04;10.63;;;2.28;;
29902;SDS011;30288;50.514;9.678;2023-05-18T09:10:13;11.30;;;2.50;;
29902;SDS011;30288;50.514;9.678;2023-05-18T09:12:19;12.82;;;2.60;;
29902;SDS011;30288;50.514;9.678;2023-05-18T09:14:25;19.08;;;2.50;;
29902;SDS011;30288;50.514;9.678;2023-05-18T09:16:30;7.80;;;2.13;;
29902;SDS011;30288;50.514;9.678;2023-05-18T09:18:36;13.25;;;2.75;;
29902;SDS011;30288;50.514;9.678;2023-05-18T09:20:42;12.00;;;2.40;;
29902;SDS011;30288;50.514;9.678;2023-05-18T09:22:48;13.48;;;2.40;;
29902;SDS011;30288;50.514;9.678;2023-05-18T09:24:54;12.05;;;2.63;;
29902;SDS011;30288;50.514;9.678;2023-05-18T09:27:02;8.63;;;2.00;;
29902;SDS011;30288;50.514;9.678;2023-05-18T09:29:15;10.77;;;2.00;;
29902;SDS011;30288;50.514;9.678;2023-05-18T09:31:21;9.93;;;2.75;;
29902;SDS011;30288;50.514;9.678;2023-05-18T09:33:31;12.73;;;3.10;;
29902;SDS011;30288;50.514;9.678;2023-05-18T09:35:41;16.05;;;2.53;;
29902;SDS011;30288;50.514;9.678;2023-05-18T09:37:47;11.40;;;2.33;;
29902;SDS011;30288;50.514;9.678;2023-05-18T09:39:59;14.30;;;2.67;;
29902;SDS011;30288;50.514;9.678;2023-05-18T09:42:11;11.85;;;2.63;;
29902;SDS011;30288;50.514;9.678;2023-05-18T09:44:16;11.68;;;2.90;;
29902;SDS011;30288;50.514;9.678;2023-05-18T09:46:21;8.38;;;2.55;;
29902;SDS011;30288;50.514;9.678;2023-05-18T09:48:26;11.27;;;2.30;;
29902;SDS011;30288;50.514;9.678;2023-05-18T09:50:32;8.20;;;2.35;;
29902;SDS011;30288;50.514;9.678;2023-05-18T09:52:41;8.82;;;2.30;;
29902;SDS011;30288;50.514;9.678;2023-05-18T09:54:51;12.10;;;2.08;;
29902;SDS011;30288;50.514;9.678;2023-05-18T09:57:03;12.10;;;2.83;;
29902;SDS011;30288;50.514;9.678;2023-05-18T09:59:14;9.93;;;2.85;;
29902;SDS011;30288;50.514;9.678;2023-05-18T10:01:20;14.90;;;2.75;;
29902;SDS011;30288;50.514;9.678;2023-05-18T10:03:25;10.52;;;2.80;;
29902;SDS011;30288;50.514;9.678;2023-05-18T10:05:34;10.00;;;1.90;;
29902;SDS011;30288;50.514;9.678;2023-05-18T10:07:41;10.18;;;2.42;;
29902;SDS011;30288;50.514;9.678;2023-05-18T10:09:47;9.30;;;2.25;;
29902;SDS011;30288;50.514;9.678;2023-05-18T10:12:10;9.77;;;2.42;;
29902;SDS011;30288;50.514;9.678;2023-05-18T10:14:19;11.60;;;2.60;;
29902;SDS011;30288;50.514;9.678;2023-05-18T10:16:31;13.65;;;3.17;;
29902;SDS011;30288;50.514;9.678;2023-05-18T10:18:37;11.43;;;2.30;;
29902;SDS011;30288;50.514;9.678;2023-05-18T10:20:43;9.48;;;2.60;;
29902;SDS011;30288;50.514;9.678;2023-05-18T10:22:51;14.48;;;2.58;;
29902;SDS011;30288;50.514;9.678;2023-05-18T10:24:59;16.58;;;3.25;;
29902;SDS011;30288;50.514;9.678;2023-05-18T10:27:08;11.68;;;2.40;;
29902;SDS011;30288;50.514;9.678;2023-05-18T10:29:14;8.75;;;2.45;;
29902;SDS011;30288;50.514;9.678;2023-05-18T10:31:23;11.55;;;3.00;;
29902;SDS011;30288;50.514;9.678;2023-05-18T10:33:31;10.52;;;2.88;;
29902;SDS011;30288;50.514;9.678;2023-05-18T10:35:39;10.80;;;2.13;;
29902;SDS011;30288;50.514;9.678;2023-05-18T10:37:45;11.38;;;3.20;;
29902;SDS011;30288;50.514;9.678;2023-05-18T10:39:53;9.40;;;2.47;;
29902;SDS011;30288;50.514;9.678;2023-05-18T10:42:01;10.13;;;2.67;;
29902;SDS011;30288;50.514;9.678;2023-05-18T10:44:09;11.48;;;2.83;;
29902;SDS011;30288;50.514;9.678;2023-05-18T10:46:16;17.60;;;2.60;;
29902;SDS011;30288;50.514;9.678;2023-05-18T10:48:27;10.40;;;2.17;;
29902;SDS011;30288;50.514;9.678;2023-05-18T10:50:33;10.77;;;2.75;;
29902;SDS011;30288;50.514;9.678;2023-05-18T10:52:40;7.43;;;2.40;;
29902;SDS011;30288;50.514;9.678;2023-05-18T10:54:47;10.73;;;2.10;;
29902;SDS011;30288;50.514;9.678;2023-05-18T10:56:55;10.10;;;2.47;;
29902;SDS011;30288;50.514;9.678;2023-05-18T10:59:01;9.75;;;2.47;;
29902;SDS011;30288;50.514;9.678;2023-05-18T11:01:08;13.25;;;2.35;;
29902;SDS011;30288;50.514;9.678;2023-05-18T11:03:17;13.25;;;2.55;;
29902;SDS011;30288;50.514;9.678;2023-05-18T11:05:24;8.57;;;2.25;;
29902;SDS011;30288;50.514;9.678;2023-05-18T11:07:29;12.30;;;2.70;;
29902;SDS011;30288;50.514;9.678;2023-05-18T11:09:35;11.20;;;2.20;;
29902;SDS011;30288;50.514;9.678;2023-05-18T11:11:50;9.02;;;2.70;;
29902;SDS011;30288;50.514;9.678;2023-05-18T11:13:58;10.82;;;2.20;;
29902;SDS011;30288;50.514;9.678;2023-05-18T11:16:05;11.77;;;2.65;;
29902;SDS011;30288;50.514;9.678;2023-05-18T11:18:12;9.40;;;2.30;;
29902;SDS011;30288;50.514;9.678;2023-05-18T11:20:23;13.73;;;2.38;;
29902;SDS011;30288;50.514;9.678;2023-05-18T11:22:38;10.35;;;2.05;;
29902;SDS011;30288;50.514;9.678;2023-05-18T11:24:52;13.10;;;2.28;;
29902;SDS011;30288;50.514;9.678;2023-05-18T11:26:57;10.10;;;2.47;;
29902;SDS011;30288;50.514;9.678;2023-05-18T11:29:14;10.25;;;2.10;;
29902;SDS011;30288;50.514;9.678;2023-05-18T11:31:32;13.55;;;2.70;;
29902;SDS011;30288;50.514;9.678;2023-05-18T11:33:47;8.85;;;2.30;;
29902;SDS011;30288;50.514;9.678;2023-05-18T11:36:08;13.48;;;2.65;;
29902;SDS011;30288;50.514;9.678;2023-05-18T11:38:15;11.68;;;2.58;;
29902;SDS011;30288;50.514;9.678;2023-05-18T11:42:56;10.40;;;2.85;;
29902;SDS011;30288;50.514;9.678;2023-05-18T11:45:05;12.40;;;2.80;;
29902;SDS011;30288;50.514;9.678;2023-05-18T11:47:11;11.73;;;2.92;;
29902;SDS011;30288;50.514;9.678;2023-05-18T11:49:16;10.93;;;2.75;;
29902;SDS011;30288;50.514;9.678;2023-05-18T11:51:26;6.93;;;2.45;;
29902;SDS011;30288;50.514;9.678;2023-05-18T11:53:35;10.07;;;2.50;;
29902;SDS011;30288;50.514;9.678;2023-05-18T11:55:40;11.70;;;2.78;;
29902;SDS011;30288;50.514;9.678;2023-05-18T11:57:47;9.52;;;2.63;;
29902;SDS011;30288;50.514;9.678;2023-05-18T11:59:55;9.50;;;2.65;;
29902;SDS011;30288;50.514;9.678;2023-05-18T12:02:02;11.38;;;2.67;;
29902;SDS011;30288;50.514;9.678;2023-05-18T12:04:11;10.93;;;2.53;;
29902;SDS011;30288;50.514;9.678;2023-05-18T12:06:16;6.38;;;2.15;;
29902;SDS011;30288;50.514;9.678;2023-05-18T12:08:24;9.02;;;2.38;;
29902;SDS011;30288;50.514;9.678;2023-05-18T12:10:30;10.93;;;2.88;;
29902;SDS011;30288;50.514;9.678;2023-05-18T12:12:40;11.85;;;2.53;;
29902;SDS011;30288;50.514;9.678;2023-05-18T12:14:47;11.77;;;2.75;;
29902;SDS011;30288;50.514;9.678;2023-05-18T12:16:57;14.10;;;3.08;;
29902;SDS011;30288;50.514;9.678;2023-05-18T12:19:05;10.50;;;2.55;;
29902;SDS011;30288;50.514;9.678;2023-05-18T12:21:11;9.15;;;2.33;;
29902;SDS011;30288;50.514;9.678;2023-05-18T12:23:17;11.98;;;2.58;;
29902;SDS011;30288;50.514;9.678;2023-05-18T12:25:25;9.43;;;2.72;;
29902;SDS011;30288;50.514;9.678;2023-05-18T12:27:32;10.73;;;2.45;;
29902;SDS011;30288;50.514;9.678;2023-05-18T12:29:42;9.25;;;2.47;;
29902;SDS011;30288;50.514;9.678;2023-05-18T12:31:47;12.15;;;2.40;;
29902;SDS011;30288;50.514;9.678;2023-05-18T12:33:53;10.55;;;2.50;;
29902;SDS011;30288;50.514;9.678;2023-05-18T12:35:59;12.65;;;2.78;;
29902;SDS011;30288;50.514;9.678;2023-05-18T12:38:05;8.30;;;2.20;;
29902;SDS011;30288;50.514;9.678;2023-05-18T12:40:10;9.63;;;2.45;;
29902;SDS011;30288;50.514;9.678;2023-05-18T12:42:20;10.13;;;2.45;;
29902;SDS011;30288;50.514;9.678;2023-05-18T12:44:26;8.88;;;2.40;;